createdAt,value
2022-09-28T00:01:21.119Z,98543.40
2022-09-28T00:03:53.805Z,98540.80
2022-09-28T00:06:25.492Z,98542.00
2022-09-28T00:08:56.223Z,98533.20
2022-09-28T00:11:27.742Z,98534.40
2022-09-28T00:14:02.748Z,98535.20
2022-09-28T00:16:34.649Z,98534.80
2022-09-28T00:19:04.651Z,98531.80
2022-09-28T00:21:37.545Z,98528.80
2022-09-28T00:24:18.282Z,98532.20
2022-09-28T00:26:50.631Z,98522.20
2022-09-28T00:29:26.325Z,98516.20
2022-09-28T00:31:59.706Z,98518.20
2022-09-28T00:34:31.523Z,98508.00
2022-09-28T00:37:02.656Z,98505.60
2022-09-28T00:39:32.420Z,98501.40
2022-09-28T00:42:02.885Z,98499.00
2022-09-28T00:44:46.432Z,98502.00
2022-09-28T00:47:30.963Z,98499.00
2022-09-28T00:50:08.559Z,98494.20
2022-09-28T00:52:45.757Z,98496.40
2022-09-28T00:55:20.497Z,98494.20
2022-09-28T00:57:57.027Z,98497.60
2022-09-28T01:00:26.446Z,98496.00
2022-09-28T01:02:57.381Z,98496.20
2022-09-28T01:05:27.458Z,98497.20
2022-09-28T01:08:09.761Z,98493.80
2022-09-28T01:10:43.182Z,98488.40
2022-09-28T01:13:15.410Z,98489.40
2022-09-28T01:15:58.958Z,98493.60
2022-09-28T01:18:40.656Z,98493.20
2022-09-28T01:21:16.548Z,98492.20
2022-09-28T01:24:19.842Z,98494.60
2022-09-28T01:27:00.997Z,98499.40
2022-09-28T01:29:46.299Z,98494.80
2022-09-28T01:32:35.200Z,98491.00
2022-09-28T01:35:14.321Z,98491.20
2022-09-28T01:37:51.928Z,98487.60
2022-09-28T01:40:26.972Z,98490.60
2022-09-28T01:43:03.991Z,98489.00
2022-09-28T01:45:41.832Z,98485.00
2022-09-28T01:48:25.051Z,98490.60
2022-09-28T01:51:02.622Z,98486.20
2022-09-28T01:53:40.119Z,98482.20
2022-09-28T01:56:18.761Z,98488.80
2022-09-28T01:58:55.292Z,98484.40
2022-09-28T02:01:29.700Z,98486.60
2022-09-28T02:04:08.546Z,98486.40
2022-09-28T02:06:46.365Z,98486.20
2022-09-28T02:09:23.498Z,98489.40
2022-09-28T02:12:01.331Z,98487.80
2022-09-28T02:14:34.651Z,98485.40
2022-09-28T02:17:06.248Z,98479.80
2022-09-28T02:19:37.505Z,98477.80
2022-09-28T02:22:23.157Z,98481.60
2022-09-28T02:24:58.943Z,98484.80
2022-09-28T02:27:37.724Z,98489.60
2022-09-28T02:30:09.923Z,98485.40
2022-09-28T02:32:45.042Z,98482.80
2022-09-28T02:35:18.417Z,98484.80
2022-09-28T02:37:48.158Z,98487.40
2022-09-28T02:40:24.089Z,98482.80
2022-09-28T02:43:10.185Z,98484.00
2022-09-28T02:45:55.128Z,98480.80
2022-09-28T02:49:27.316Z,98475.80
2022-09-28T02:52:24.189Z,98475.20
2022-09-28T02:55:29.662Z,98478.40
2022-09-28T02:58:21.355Z,98485.00
2022-09-28T03:01:03.243Z,98484.20
2022-09-28T03:03:44.235Z,98485.20
2022-09-28T03:06:22.890Z,98483.80
2022-09-28T03:09:01.109Z,98482.20
2022-09-28T03:11:38.770Z,98488.40
2022-09-28T03:14:08.929Z,98484.60
2022-09-28T03:16:47.618Z,98486.40
2022-09-28T03:19:23.124Z,98488.40
2022-09-28T03:21:55.044Z,98485.80
2022-09-28T03:24:24.795Z,98493.40
2022-09-28T03:26:54.175Z,98487.40
2022-09-28T03:29:24.804Z,98484.80
2022-09-28T03:31:59.128Z,98486.60
2022-09-28T03:34:28.315Z,98487.40
2022-09-28T03:36:57.528Z,98491.00
2022-09-28T03:39:26.663Z,98490.60
2022-09-28T03:42:00.673Z,98491.60
2022-09-28T03:44:30.998Z,98488.40
2022-09-28T03:47:00.466Z,98479.80
2022-09-28T03:49:29.606Z,98482.80
2022-09-28T03:51:58.732Z,98479.20
2022-09-28T03:54:27.973Z,98477.40
2022-09-28T03:57:01.203Z,98479.00
2022-09-28T03:59:49.932Z,98480.00
2022-09-28T04:02:19.354Z,98476.60
2022-09-28T04:04:48.627Z,98477.80
2022-09-28T04:07:17.809Z,98475.60
2022-09-28T04:09:46.986Z,98478.60
2022-09-28T04:12:16.162Z,98478.80
2022-09-28T04:14:45.387Z,98478.20
2022-09-28T04:17:14.580Z,98479.40
2022-09-28T04:19:43.772Z,98476.80
2022-09-28T04:22:34.093Z,98476.00
2022-09-28T04:25:04.106Z,98474.40
2022-09-28T04:27:51.822Z,98476.80
2022-09-28T04:30:21.661Z,98475.40
2022-09-28T04:32:51.446Z,98474.20
2022-09-28T04:35:21.229Z,98470.20
2022-09-28T04:37:50.523Z,98465.40
2022-09-28T04:40:19.773Z,98470.60
2022-09-28T04:42:55.899Z,98469.00
2022-09-28T04:45:26.335Z,98470.20
2022-09-28T04:47:57.281Z,98464.40
2022-09-28T04:50:54.767Z,98467.20
2022-09-28T04:53:26.380Z,98460.20
2022-09-28T04:56:01.552Z,98466.20
2022-09-28T04:58:31.650Z,98468.20
2022-09-28T05:01:04.665Z,98470.80
2022-09-28T05:03:56.774Z,98470.00
2022-09-28T05:06:52.064Z,98474.20
2022-09-28T05:09:21.377Z,98468.60
2022-09-28T05:11:52.426Z,98470.80
2022-09-28T05:14:22.591Z,98468.80
2022-09-28T05:16:51.941Z,98469.00
2022-09-28T05:19:30.145Z,98466.80
2022-09-28T05:22:05.502Z,98464.00
2022-09-28T05:24:41.075Z,98463.80
2022-09-28T05:27:11.331Z,98461.60
2022-09-28T05:29:40.847Z,98463.00
2022-09-28T05:32:42.328Z,98462.80
2022-09-28T05:35:31.590Z,98463.20
2022-09-28T05:38:05.132Z,98461.80
2022-09-28T05:40:35.579Z,98460.20
2022-09-28T05:43:04.916Z,98458.00
2022-09-28T05:45:34.746Z,98462.20
2022-09-28T05:48:05.811Z,98456.40
2022-09-28T05:50:35.208Z,98461.60
2022-09-28T05:53:07.802Z,98459.00
2022-09-28T05:55:39.396Z,98451.40
2022-09-28T05:58:09.164Z,98450.80
2022-09-28T06:00:38.517Z,98450.60
2022-09-28T06:03:12.796Z,98444.80
2022-09-28T06:05:42.138Z,98445.20
2022-09-28T06:08:11.794Z,98448.20
2022-09-28T06:10:45.454Z,98445.00
2022-09-28T06:13:15.717Z,98439.20
2022-09-28T06:15:46.028Z,98444.60
2022-09-28T06:18:16.467Z,98450.60
2022-09-28T06:21:05.265Z,98443.60
2022-09-28T06:23:41.042Z,98444.00
2022-09-28T06:26:12.082Z,98440.80
2022-09-28T06:28:41.520Z,98441.80
2022-09-28T06:31:11.707Z,98443.00
2022-09-28T06:33:50.171Z,98447.80
2022-09-28T06:36:20.585Z,98450.40
2022-09-28T06:38:49.825Z,98450.40
2022-09-28T06:41:19.293Z,98449.40
2022-09-28T06:43:49.941Z,98444.40
2022-09-28T06:46:38.757Z,98436.40
2022-09-28T06:49:29.802Z,98437.20
2022-09-28T06:52:17.330Z,98437.60
2022-09-28T06:55:09.805Z,98440.40
2022-09-28T06:57:47.766Z,98441.00
2022-09-28T07:00:18.652Z,98428.80
2022-09-28T07:02:49.972Z,98427.40
2022-09-28T07:05:37.051Z,98426.40
2022-09-28T07:08:32.815Z,98419.60
2022-09-28T07:11:28.447Z,98413.40
2022-09-28T07:14:40.352Z,98415.20
2022-09-28T07:17:15.361Z,98410.00
2022-09-28T07:19:45.550Z,98411.60
2022-09-28T07:22:18.497Z,98417.80
2022-09-28T07:24:48.613Z,98425.60
2022-09-28T07:27:43.279Z,98426.60
2022-09-28T07:30:35.568Z,98426.40
2022-09-28T07:33:13.784Z,98437.00
2022-09-28T07:35:55.686Z,98438.20
2022-09-28T07:38:30.937Z,98435.40
2022-09-28T07:41:13.579Z,98440.20
2022-09-28T07:43:47.257Z,98435.40
2022-09-28T07:46:17.120Z,98435.40
2022-09-28T07:48:54.881Z,98434.60
2022-09-28T07:51:36.378Z,98431.40
2022-09-28T07:54:40.987Z,98429.20
2022-09-28T07:57:22.368Z,98422.20
2022-09-28T08:00:16.094Z,98424.40
2022-09-28T08:02:47.644Z,98421.40
2022-09-28T08:05:23.212Z,98412.40
2022-09-28T08:07:52.757Z,98414.60
2022-09-28T08:10:37.557Z,98421.20
2022-09-28T08:13:27.124Z,98424.20
2022-09-28T08:16:16.528Z,98414.20
2022-09-28T08:19:04.756Z,98418.80
2022-09-28T08:21:45.492Z,98425.60
2022-09-28T08:24:17.418Z,98418.20
2022-09-28T08:26:46.871Z,98420.40
2022-09-28T08:29:18.199Z,98423.80
2022-09-28T08:31:53.029Z,98420.60
2022-09-28T08:34:52.069Z,98416.40
2022-09-28T08:37:55.575Z,98409.20
2022-09-28T08:41:03.685Z,98403.20
2022-09-28T08:43:56.095Z,98412.60
2022-09-28T08:46:40.624Z,98408.60
2022-09-28T08:49:43.745Z,98413.40
2022-09-28T08:52:36.830Z,98410.40
2022-09-28T08:55:19.589Z,98410.00
2022-09-28T08:57:58.854Z,98402.80
2022-09-28T09:00:38.499Z,98397.80
2022-09-28T09:03:14.911Z,98397.80
2022-09-28T09:06:03.007Z,98396.40
2022-09-28T09:09:02.935Z,98392.80
2022-09-28T09:11:49.473Z,98392.80
2022-09-28T09:14:41.973Z,98388.60
2022-09-28T09:17:19.367Z,98384.80
2022-09-28T09:20:11.026Z,98386.20
2022-09-28T09:22:59.395Z,98388.60
2022-09-28T09:25:38.283Z,98384.60
2022-09-28T09:28:37.629Z,98380.80
2022-09-28T09:31:22.576Z,98374.00
2022-09-28T09:34:17.224Z,98381.20
2022-09-28T09:36:57.516Z,98385.20
2022-09-28T09:40:00.002Z,98385.60
2022-09-28T09:43:01.906Z,98387.00
2022-09-28T09:46:02.336Z,98383.20
2022-09-28T09:48:45.239Z,98386.60
2022-09-28T09:51:22.591Z,98378.20
2022-09-28T09:53:59.157Z,98377.60
2022-09-28T09:56:33.972Z,98371.60
2022-09-28T09:59:13.725Z,98366.60
2022-09-28T10:02:03.141Z,98367.60
2022-09-28T10:04:43.887Z,98365.40
2022-09-28T10:07:25.009Z,98362.80
2022-09-28T10:09:57.612Z,98366.00
2022-09-28T10:12:42.340Z,98366.00
2022-09-28T10:15:18.788Z,98363.80
2022-09-28T10:18:03.216Z,98368.20
2022-09-28T10:20:50.085Z,98372.40
2022-09-28T10:23:36.189Z,98380.00
2022-09-28T10:26:09.054Z,98374.40
2022-09-28T10:28:48.021Z,98374.00
2022-09-28T10:31:37.776Z,98372.40
2022-09-28T10:34:13.383Z,98380.80
2022-09-28T10:36:49.533Z,98378.20
2022-09-28T10:39:42.096Z,98376.00
2022-09-28T10:42:17.726Z,98382.80
2022-09-28T10:44:53.700Z,98387.60
2022-09-28T10:47:37.109Z,98387.80
2022-09-28T10:50:19.672Z,98390.60
2022-09-28T10:52:48.351Z,98393.40
2022-09-28T10:55:36.489Z,98389.20
2022-09-28T10:58:26.979Z,98386.60
2022-09-28T11:01:05.460Z,98397.20
2022-09-28T11:03:40.228Z,98405.60
2022-09-28T11:06:09.382Z,98414.40
2022-09-28T11:08:42.315Z,98420.00
2022-09-28T11:11:16.452Z,98426.40
2022-09-28T11:13:49.871Z,98418.80
2022-09-28T11:16:40.418Z,98423.60
2022-09-28T11:19:30.205Z,98415.80
2022-09-28T11:22:11.418Z,98405.00
2022-09-28T11:24:42.269Z,98400.80
2022-09-28T11:27:25.323Z,98399.80
2022-09-28T11:29:57.715Z,98388.00
2022-09-28T11:32:31.335Z,98392.20
2022-09-28T11:35:21.624Z,98396.20
2022-09-28T11:38:07.912Z,98394.40
2022-09-28T11:41:14.221Z,98389.60
2022-09-28T11:43:56.997Z,98393.40
2022-09-28T11:46:32.488Z,98390.80
2022-09-28T11:49:19.676Z,98390.00
2022-09-28T11:51:50.129Z,98391.60
2022-09-28T11:54:35.681Z,98389.60
2022-09-28T11:57:18.250Z,98393.20
2022-09-28T11:59:56.285Z,98394.80
2022-09-28T12:02:30.808Z,98399.40
2022-09-28T12:05:20.907Z,98392.60
2022-09-28T12:07:57.205Z,98395.40
2022-09-28T12:11:04.281Z,98389.00
2022-09-28T12:14:22.637Z,98377.20
2022-09-28T12:20:22.498Z,98380.40
2022-09-28T12:23:03.820Z,98376.20
2022-09-28T12:25:39.492Z,98373.00
2022-09-28T12:28:13.066Z,98372.00
2022-09-28T12:30:45.797Z,98369.40
2022-09-28T12:33:17.524Z,98365.20
2022-09-28T12:35:58.415Z,98360.40
2022-09-28T12:39:14.767Z,98360.20
2022-09-28T12:45:38.484Z,98362.20
2022-09-28T12:49:03.043Z,98361.00
2022-09-28T12:52:26.392Z,98350.60
2022-09-28T12:57:56.685Z,98342.80
2022-09-28T13:00:30.503Z,98335.00
2022-09-28T13:03:35.653Z,98333.60
2022-09-28T13:06:34.117Z,98324.80
2022-09-28T13:09:27.037Z,98317.00
2022-09-28T13:12:13.794Z,98325.40
2022-09-28T13:15:22.936Z,98320.40
2022-09-28T13:18:00.330Z,98309.80
2022-09-28T13:20:37.635Z,98313.60
2022-09-28T13:23:16.102Z,98319.00
2022-09-28T13:25:52.513Z,98322.20
2022-09-28T13:28:26.986Z,98327.40
2022-09-28T13:33:36.243Z,98327.60
2022-09-28T13:36:26.252Z,98324.40
2022-09-28T13:39:00.995Z,98321.60
2022-09-28T13:41:37.007Z,98327.60
2022-09-28T13:44:35.401Z,98325.80
2022-09-28T13:47:29.984Z,98329.60
2022-09-28T13:50:17.649Z,98328.40
2022-09-28T13:52:54.569Z,98329.40
2022-09-28T13:55:36.722Z,98327.40
2022-09-28T13:58:18.462Z,98323.60
2022-09-28T14:00:51.043Z,98322.00
2022-09-28T14:03:41.940Z,98325.80
2022-09-28T14:06:31.735Z,98323.00
2022-09-28T14:09:25.318Z,98318.40
2022-09-28T14:11:59.468Z,98314.60
2022-09-28T14:14:43.636Z,98308.80
2022-09-28T14:17:50.943Z,98313.80
2022-09-28T14:20:24.700Z,98317.20
2022-09-28T14:23:35.173Z,98314.20
2022-09-28T14:26:42.798Z,98313.40
2022-09-28T14:29:27.802Z,98304.00
2022-09-28T14:31:58.335Z,98298.80
2022-09-28T14:34:36.571Z,98300.60
2022-09-28T14:37:36.688Z,98302.80
2022-09-28T14:40:36.349Z,98303.20
2022-09-28T14:43:30.304Z,98301.80
2022-09-28T14:46:46.875Z,98299.40
2022-09-28T14:49:48.130Z,98297.40
2022-09-28T14:52:40.537Z,98292.40
2022-09-28T14:55:14.832Z,98292.60
2022-09-28T14:57:44.264Z,98295.40
2022-09-28T15:00:20.697Z,98291.80
2022-09-28T15:02:52.050Z,98296.20
2022-09-28T15:05:27.238Z,98293.80
2022-09-28T15:07:56.521Z,98290.40
2022-09-28T15:10:31.447Z,98284.40
2022-09-28T15:13:02.744Z,98278.60
2022-09-28T15:15:35.375Z,98281.20
2022-09-28T15:18:28.200Z,98277.40
2022-09-28T15:20:57.417Z,98278.80
2022-09-28T15:23:35.352Z,98284.80
2022-09-28T15:26:06.498Z,98289.40
2022-09-28T15:28:38.842Z,98294.60
2022-09-28T15:31:16.927Z,98288.60
2022-09-28T15:34:03.580Z,98287.00
2022-09-28T15:36:34.466Z,98283.60
2022-09-28T15:39:05.835Z,98281.60
2022-09-28T15:41:34.843Z,98277.20
2022-09-28T15:44:07.873Z,98284.00
2022-09-28T15:46:39.862Z,98288.80
2022-09-28T15:49:22.161Z,98292.80
2022-09-28T15:51:52.705Z,98297.40
2022-09-28T15:54:26.221Z,98307.80
2022-09-28T15:56:57.192Z,98319.20
2022-09-28T15:59:31.122Z,98320.20
2022-09-28T16:02:14.741Z,98327.40
2022-09-28T16:04:49.994Z,98330.40
2022-09-28T16:07:38.081Z,98332.20
2022-09-28T16:10:30.601Z,98334.60
2022-09-28T16:13:09.514Z,98339.60
2022-09-28T16:15:39.025Z,98339.80
2022-09-28T16:18:19.804Z,98341.20
2022-09-28T16:20:50.944Z,98351.40
2022-09-28T16:23:23.466Z,98350.80
2022-09-28T16:25:58.059Z,98343.60
2022-09-28T16:28:50.925Z,98344.80
2022-09-28T16:31:37.309Z,98351.60
2022-09-28T16:34:19.445Z,98358.80
2022-09-28T16:36:49.370Z,98363.40
2022-09-28T16:39:18.870Z,98362.60
2022-09-28T16:41:56.203Z,98353.80
2022-09-28T16:44:27.792Z,98360.80
2022-09-28T16:46:59.591Z,98361.80
2022-09-28T16:49:30.950Z,98356.00
2022-09-28T16:51:59.780Z,98356.40
2022-09-28T16:54:48.144Z,98352.20
2022-09-28T16:57:17.172Z,98358.60
2022-09-28T16:59:45.603Z,98364.60
2022-09-28T17:02:42.123Z,98370.20
2022-09-28T17:05:12.037Z,98373.00
2022-09-28T17:07:40.897Z,98376.60
2022-09-28T17:10:17.732Z,98382.80
2022-09-28T17:12:46.928Z,98381.80
2022-09-28T17:15:18.960Z,98388.20
2022-09-28T17:17:48.641Z,98391.80
2022-09-28T17:20:21.817Z,98394.00
2022-09-28T17:22:50.710Z,98393.40
2022-09-28T17:25:19.919Z,98397.80
2022-09-28T17:27:49.108Z,98390.80
2022-09-28T17:30:22.174Z,98391.00
2022-09-28T17:32:54.045Z,98397.80
2022-09-28T17:35:25.130Z,98402.80
2022-09-28T17:37:54.603Z,98405.40
2022-09-28T17:40:25.287Z,98405.80
2022-09-28T17:42:55.832Z,98406.60
2022-09-28T17:45:26.323Z,98411.80
2022-09-28T17:47:55.519Z,98410.80
2022-09-28T17:50:25.744Z,98419.40
2022-09-28T17:52:57.147Z,98422.80
2022-09-28T17:55:29.831Z,98422.00
2022-09-28T17:58:00.585Z,98419.40
2022-09-28T18:00:33.570Z,98425.00
2022-09-28T18:03:02.397Z,98429.80
2022-09-28T18:05:30.954Z,98431.00
2022-09-28T18:07:59.537Z,98431.20
2022-09-28T18:10:30.084Z,98431.40
2022-09-28T18:13:02.100Z,98437.60
2022-09-28T18:15:52.509Z,98437.40
2022-09-28T18:18:21.536Z,98447.20
2022-09-28T18:20:50.756Z,98448.00
2022-09-28T18:23:19.365Z,98454.80
2022-09-28T18:25:48.661Z,98463.60
2022-09-28T18:28:17.101Z,98464.00
2022-09-28T18:30:47.777Z,98463.20
2022-09-28T18:33:28.126Z,98473.20
2022-09-28T18:35:57.178Z,98476.60
2022-09-28T18:38:26.917Z,98474.00
2022-09-28T18:40:56.006Z,98473.80
2022-09-28T18:43:24.958Z,98479.20
2022-09-28T18:45:55.528Z,98478.40
2022-09-28T18:48:29.030Z,98489.60
2022-09-28T18:50:58.081Z,98490.60
2022-09-28T18:53:28.625Z,98493.60
2022-09-28T18:55:57.394Z,98497.00
2022-09-28T18:58:27.232Z,98496.40
2022-09-28T19:01:28.459Z,98499.20
2022-09-28T19:03:54.613Z,98504.00
2022-09-28T19:06:23.167Z,98500.00
2022-09-28T19:08:57.124Z,98508.00
2022-09-28T19:11:26.498Z,98506.20
2022-09-28T19:13:56.160Z,98507.00
2022-09-28T19:16:26.787Z,98509.20
2022-09-28T19:18:56.209Z,98511.00
2022-09-28T19:21:25.097Z,98508.40
2022-09-28T19:23:54.697Z,98505.40
2022-09-28T19:26:26.453Z,98511.40
2022-09-28T19:28:57.134Z,98513.60
2022-09-28T19:31:33.796Z,98518.80
2022-09-28T19:34:03.250Z,98521.20
2022-09-28T19:36:33.544Z,98521.20
2022-09-28T19:39:03.425Z,98518.00
2022-09-28T19:41:50.437Z,98520.00
2022-09-28T19:44:23.996Z,98522.60
2022-09-28T19:46:54.596Z,98521.80
2022-09-28T19:49:24.708Z,98524.20
2022-09-28T19:52:12.293Z,98528.40
2022-09-28T19:54:43.172Z,98525.60
2022-09-28T19:57:12.211Z,98534.00
2022-09-28T19:59:40.739Z,98541.80
2022-09-28T20:02:10.890Z,98543.00
2022-09-28T20:04:39.325Z,98548.20
2022-09-28T20:07:07.861Z,98558.20
2022-09-28T20:09:36.653Z,98558.20
2022-09-28T20:12:05.572Z,98567.60
2022-09-28T20:14:39.480Z,98564.20
2022-09-28T20:17:10.036Z,98568.80
2022-09-28T20:19:39.791Z,98572.40
2022-09-28T20:22:08.533Z,98572.20
2022-09-28T20:24:37.068Z,98579.20
2022-09-28T20:27:06.141Z,98585.60
2022-09-28T20:29:51.766Z,98587.60
2022-09-28T20:32:22.808Z,98592.60
2022-09-28T20:34:51.456Z,98597.40
2022-09-28T20:37:19.792Z,98597.40
2022-09-28T20:39:48.229Z,98598.80
2022-09-28T20:42:16.638Z,98606.40
2022-09-28T20:44:45.561Z,98610.00
2022-09-28T20:47:14.012Z,98615.00
2022-09-28T20:49:43.748Z,98618.80
2022-09-28T20:52:12.163Z,98622.80
2022-09-28T20:54:42.700Z,98629.40
2022-09-28T20:57:16.980Z,98629.60
2022-09-28T20:59:47.890Z,98630.00
2022-09-28T21:02:19.396Z,98636.20
2022-09-28T21:05:03.662Z,98639.00
2022-09-28T21:07:58.785Z,98637.60
2022-09-28T21:10:52.422Z,98640.00
2022-09-28T21:13:22.665Z,98639.80
2022-09-28T21:19:52.071Z,98648.00
2022-09-28T21:23:24.919Z,98647.00
2022-09-28T21:26:02.927Z,98647.40
2022-09-28T21:28:34.094Z,98644.40
2022-09-28T21:31:17.755Z,98643.80
2022-09-28T21:36:57.249Z,98655.20
2022-09-28T21:40:13.851Z,98656.20
2022-09-28T21:42:51.809Z,98662.40
2022-09-28T21:46:05.399Z,98664.60
2022-09-28T21:48:51.025Z,98663.60
2022-09-28T21:51:19.794Z,98662.40
2022-09-28T21:53:48.914Z,98668.60
2022-09-28T21:56:17.613Z,98669.80
2022-09-28T21:58:46.423Z,98680.40
2022-09-28T22:01:17.459Z,98683.00
2022-09-28T22:03:47.752Z,98680.20
2022-09-28T22:06:18.537Z,98682.80
2022-09-28T22:08:48.251Z,98675.80
2022-09-28T22:11:19.255Z,98683.80
2022-09-28T22:13:49.692Z,98682.20
2022-09-28T22:16:20.256Z,98682.80
2022-09-28T22:18:49.794Z,98680.80
2022-09-28T22:21:20.618Z,98688.40
2022-09-28T22:23:49.815Z,98683.80
2022-09-28T22:26:22.060Z,98679.20
2022-09-28T22:28:52.240Z,98685.20
2022-09-28T22:31:22.474Z,98688.20
2022-09-28T22:33:51.225Z,98685.40
2022-09-28T22:36:19.677Z,98686.40
2022-09-28T22:38:49.019Z,98681.40
2022-09-28T22:41:20.158Z,98688.40
2022-09-28T22:43:49.395Z,98690.60
2022-09-28T22:46:18.906Z,98694.80
2022-09-28T22:48:49.606Z,98696.40
2022-09-28T22:51:18.086Z,98693.60
2022-09-28T22:53:47.023Z,98693.80
2022-09-28T22:56:18.764Z,98698.00
2022-09-28T22:58:48.107Z,98698.40
2022-09-28T23:01:18.655Z,98699.20
2022-09-28T23:03:47.432Z,98700.00
2022-09-28T23:06:17.751Z,98703.60
2022-09-28T23:08:46.951Z,98701.40
2022-09-28T23:11:15.653Z,98707.00
2022-09-28T23:13:47.883Z,98702.60
2022-09-28T23:16:16.378Z,98705.40
2022-09-28T23:18:45.480Z,98706.80
2022-09-28T23:21:15.924Z,98708.80
2022-09-28T23:23:45.331Z,98705.00
2022-09-28T23:26:15.343Z,98703.20
2022-09-28T23:28:44.529Z,98700.40
2022-09-28T23:31:15.266Z,98703.40
2022-09-28T23:33:44.142Z,98705.80
2022-09-28T23:36:12.924Z,98707.40
2022-09-28T23:38:41.729Z,98711.40
2022-09-28T23:41:10.939Z,98708.00
2022-09-28T23:43:39.518Z,98704.20
2022-09-28T23:46:08.125Z,98701.20
2022-09-28T23:48:36.650Z,98705.20
2022-09-28T23:51:05.508Z,98697.60
2022-09-28T23:53:33.962Z,98701.20
2022-09-28T23:56:02.665Z,98699.20
2022-09-28T23:58:31.309Z,98698.60
